sensor_id;sensor_type;location;lat;lon;timestamp;temperature;humidity
29295;DHT22;16305;48.566;8.846;2023-04-01T00:00:51;7.20;99.90
29295;DHT22;16305;48.566;8.846;2023-04-01T00:03:17;7.20;99.90
29295;DHT22;16305;48.566;8.846;2023-04-01T00:05:43;7.20;99.90
29295;DHT22;16305;48.566;8.846;2023-04-01T00:08:10;7.20;99.90
29295;DHT22;16305;48.566;8.846;2023-04-01T00:10:36;7.20;99.90
29295;DHT22;16305;48.566;8.846;2023-04-01T00:13:02;7.10;99.90
29295;DHT22;16305;48.566;8.846;2023-04-01T00:15:28;7.10;99.90
29295;DHT22;16305;48.566;8.846;2023-04-01T00:17:53;7.10;99.90
29295;DHT22;16305;48.566;8.846;2023-04-01T00:20:19;7.10;99.90
29295;DHT22;16305;48.566;8.846;2023-04-01T00:22:45;7.10;99.90
29295;DHT22;16305;48.566;8.846;2023-04-01T00:25:11;7.10;99.90
29295;DHT22;16305;48.566;8.846;2023-04-01T00:27:36;7.00;99.90
29295;DHT22;16305;48.566;8.846;2023-04-01T00:30:02;7.00;99.90
29295;DHT22;16305;48.566;8.846;2023-04-01T00:32:28;7.00;99.90
29295;DHT22;16305;48.566;8.846;2023-04-01T00:34:54;6.90;99.90
29295;DHT22;16305;48.566;8.846;2023-04-01T00:37:20;6.90;99.90
29295;DHT22;16305;48.566;8.846;2023-04-01T00:39:46;6.90;99.90
29295;DHT22;16305;48.566;8.846;2023-04-01T00:42:12;6.90;99.90
29295;DHT22;16305;48.566;8.846;2023-04-01T00:44:39;6.90;99.90
29295;DHT22;16305;48.566;8.846;2023-04-01T00:47:05;6.80;99.90
29295;DHT22;16305;48.566;8.846;2023-04-01T00:49:34;6.90;99.90
29295;DHT22;16305;48.566;8.846;2023-04-01T00:52:02;6.80;99.90
29295;DHT22;16305;48.566;8.846;2023-04-01T00:54:30;6.80;99.90
29295;DHT22;16305;48.566;8.846;2023-04-01T00:57:06;6.90;99.90
29295;DHT22;16305;48.566;8.846;2023-04-01T00:59:37;6.90;99.90
29295;DHT22;16305;48.566;8.846;2023-04-01T01:02:07;6.90;99.90
29295;DHT22;16305;48.566;8.846;2023-04-01T01:04:34;6.90;99.90
29295;DHT22;16305;48.566;8.846;2023-04-01T01:10:15;7.00;99.90
29295;DHT22;16305;48.566;8.846;2023-04-01T01:12:48;6.90;99.90
29295;DHT22;16305;48.566;8.846;2023-04-01T01:15:32;6.90;99.90
29295;DHT22;16305;48.566;8.846;2023-04-01T01:18:41;6.90;99.90
29295;DHT22;16305;48.566;8.846;2023-04-01T01:24:32;6.80;99.90
29295;DHT22;16305;48.566;8.846;2023-04-01T01:27:10;6.80;99.90
29295;DHT22;16305;48.566;8.846;2023-04-01T01:30:05;6.90;99.90
29295;DHT22;16305;48.566;8.846;2023-04-01T01:35:31;6.80;99.90
29295;DHT22;16305;48.566;8.846;2023-04-01T01:38:02;6.80;99.90
29295;DHT22;16305;48.566;8.846;2023-04-01T01:40:30;6.70;99.90
29295;DHT22;16305;48.566;8.846;2023-04-01T01:43:00;6.70;99.90
29295;DHT22;16305;48.566;8.846;2023-04-01T01:45:30;6.70;99.90
29295;DHT22;16305;48.566;8.846;2023-04-01T01:47:58;6.70;99.90
29295;DHT22;16305;48.566;8.846;2023-04-01T01:50:26;6.60;99.90
29295;DHT22;16305;48.566;8.846;2023-04-01T01:53:03;6.70;99.90
29295;DHT22;16305;48.566;8.846;2023-04-01T01:55:35;6.70;99.90
29295;DHT22;16305;48.566;8.846;2023-04-01T02:00:53;6.60;99.90
29295;DHT22;16305;48.566;8.846;2023-04-01T02:03:21;6.70;99.90
29295;DHT22;16305;48.566;8.846;2023-04-01T02:05:49;6.60;99.90
29295;DHT22;16305;48.566;8.846;2023-04-01T02:08:20;6.60;99.90
29295;DHT22;16305;48.566;8.846;2023-04-01T02:11:03;6.60;99.90
29295;DHT22;16305;48.566;8.846;2023-04-01T02:16:22;6.50;99.90
29295;DHT22;16305;48.566;8.846;2023-04-01T02:18:50;6.50;99.90
29295;DHT22;16305;48.566;8.846;2023-04-01T02:21:20;6.50;99.90
29295;DHT22;16305;48.566;8.846;2023-04-01T02:23:46;6.50;99.90
29295;DHT22;16305;48.566;8.846;2023-04-01T02:26:13;6.50;99.90
29295;DHT22;16305;48.566;8.846;2023-04-01T02:28:39;6.50;99.90
29295;DHT22;16305;48.566;8.846;2023-04-01T02:31:07;6.50;99.90
29295;DHT22;16305;48.566;8.846;2023-04-01T02:33:34;6.50;99.90
29295;DHT22;16305;48.566;8.846;2023-04-01T02:35:59;6.40;99.90
29295;DHT22;16305;48.566;8.846;2023-04-01T02:38:26;6.40;99.90
29295;DHT22;16305;48.566;8.846;2023-04-01T02:41:00;6.40;99.90
29295;DHT22;16305;48.566;8.846;2023-04-01T02:43:26;6.30;99.90
29295;DHT22;16305;48.566;8.846;2023-04-01T02:45:52;6.30;99.90
29295;DHT22;16305;48.566;8.846;2023-04-01T02:48:18;6.40;99.90
29295;DHT22;16305;48.566;8.846;2023-04-01T02:50:43;6.40;99.90
29295;DHT22;16305;48.566;8.846;2023-04-01T02:53:09;6.30;99.90
29295;DHT22;16305;48.566;8.846;2023-04-01T02:55:34;6.30;99.90
29295;DHT22;16305;48.566;8.846;2023-04-01T02:58:00;6.20;99.90
29295;DHT22;16305;48.566;8.846;2023-04-01T03:00:26;6.20;99.90
29295;DHT22;16305;48.566;8.846;2023-04-01T03:02:52;6.10;99.90
29295;DHT22;16305;48.566;8.846;2023-04-01T03:05:18;6.20;99.90
29295;DHT22;16305;48.566;8.846;2023-04-01T03:07:44;6.20;99.90
29295;DHT22;16305;48.566;8.846;2023-04-01T03:10:10;6.10;99.90
29295;DHT22;16305;48.566;8.846;2023-04-01T03:12:36;6.20;99.90
29295;DHT22;16305;48.566;8.846;2023-04-01T03:15:01;6.20;99.90
29295;DHT22;16305;48.566;8.846;2023-04-01T03:17:27;6.20;99.90
29295;DHT22;16305;48.566;8.846;2023-04-01T03:19:52;6.20;99.90
29295;DHT22;16305;48.566;8.846;2023-04-01T03:22:18;6.30;99.90
29295;DHT22;16305;48.566;8.846;2023-04-01T03:24:46;6.40;99.90
29295;DHT22;16305;48.566;8.846;2023-04-01T03:27:12;6.40;99.90
29295;DHT22;16305;48.566;8.846;2023-04-01T03:29:38;6.40;99.90
29295;DHT22;16305;48.566;8.846;2023-04-01T03:32:04;6.30;99.90
29295;DHT22;16305;48.566;8.846;2023-04-01T03:34:29;6.30;99.90
29295;DHT22;16305;48.566;8.846;2023-04-01T03:36:55;6.10;99.90
29295;DHT22;16305;48.566;8.846;2023-04-01T03:39:20;6.00;99.90
29295;DHT22;16305;48.566;8.846;2023-04-01T03:41:46;6.00;99.90
29295;DHT22;16305;48.566;8.846;2023-04-01T03:44:12;5.90;99.90
29295;DHT22;16305;48.566;8.846;2023-04-01T03:46:37;5.90;99.90
29295;DHT22;16305;48.566;8.846;2023-04-01T03:49:07;5.90;99.90
29295;DHT22;16305;48.566;8.846;2023-04-01T03:51:40;5.90;99.90
29295;DHT22;16305;48.566;8.846;2023-04-01T03:54:06;5.90;99.90
29295;DHT22;16305;48.566;8.846;2023-04-01T03:56:32;5.90;99.90
29295;DHT22;16305;48.566;8.846;2023-04-01T03:58:58;5.80;99.90
29295;DHT22;16305;48.566;8.846;2023-04-01T04:01:23;5.90;99.90
29295;DHT22;16305;48.566;8.846;2023-04-01T04:03:50;5.90;99.90
29295;DHT22;16305;48.566;8.846;2023-04-01T04:06:17;5.90;99.90
29295;DHT22;16305;48.566;8.846;2023-04-01T04:08:43;5.80;99.90
29295;DHT22;16305;48.566;8.846;2023-04-01T04:11:10;5.70;99.90
29295;DHT22;16305;48.566;8.846;2023-04-01T04:13:35;5.60;99.90
29295;DHT22;16305;48.566;8.846;2023-04-01T04:16:02;5.60;99.90
29295;DHT22;16305;48.566;8.846;2023-04-01T04:18:28;5.60;99.90
29295;DHT22;16305;48.566;8.846;2023-04-01T04:20:54;5.60;99.90
29295;DHT22;16305;48.566;8.846;2023-04-01T04:23:19;5.60;99.90
29295;DHT22;16305;48.566;8.846;2023-04-01T04:26:05;5.60;99.90
29295;DHT22;16305;48.566;8.846;2023-04-01T04:28:31;5.70;99.90
29295;DHT22;16305;48.566;8.846;2023-04-01T04:30:57;5.80;99.90
29295;DHT22;16305;48.566;8.846;2023-04-01T04:33:24;5.90;99.90
29295;DHT22;16305;48.566;8.846;2023-04-01T04:35:50;6.00;99.90
29295;DHT22;16305;48.566;8.846;2023-04-01T04:38:15;6.00;99.90
29295;DHT22;16305;48.566;8.846;2023-04-01T04:40:42;6.10;99.90
29295;DHT22;16305;48.566;8.846;2023-04-01T04:43:11;6.10;99.90
29295;DHT22;16305;48.566;8.846;2023-04-01T04:45:37;6.20;99.90
29295;DHT22;16305;48.566;8.846;2023-04-01T04:48:03;6.20;99.90
29295;DHT22;16305;48.566;8.846;2023-04-01T04:50:28;6.20;99.90
29295;DHT22;16305;48.566;8.846;2023-04-01T04:52:54;6.30;99.90
29295;DHT22;16305;48.566;8.846;2023-04-01T04:55:20;6.30;99.90
29295;DHT22;16305;48.566;8.846;2023-04-01T04:57:46;6.30;99.90
29295;DHT22;16305;48.566;8.846;2023-04-01T05:00:12;6.30;99.90
29295;DHT22;16305;48.566;8.846;2023-04-01T05:02:37;6.30;99.90
29295;DHT22;16305;48.566;8.846;2023-04-01T05:05:03;6.40;99.90
29295;DHT22;16305;48.566;8.846;2023-04-01T05:07:29;6.40;99.90
29295;DHT22;16305;48.566;8.846;2023-04-01T05:09:55;6.40;99.90
29295;DHT22;16305;48.566;8.846;2023-04-01T05:12:20;6.40;99.90
29295;DHT22;16305;48.566;8.846;2023-04-01T05:14:46;6.50;99.90
29295;DHT22;16305;48.566;8.846;2023-04-01T05:17:12;6.50;99.90
29295;DHT22;16305;48.566;8.846;2023-04-01T05:19:38;6.40;99.90
29295;DHT22;16305;48.566;8.846;2023-04-01T05:22:04;6.40;99.90
29295;DHT22;16305;48.566;8.846;2023-04-01T05:24:30;6.40;99.90
29295;DHT22;16305;48.566;8.846;2023-04-01T05:26:56;6.50;99.90
29295;DHT22;16305;48.566;8.846;2023-04-01T05:29:23;6.50;99.90
29295;DHT22;16305;48.566;8.846;2023-04-01T05:31:48;6.50;99.90
29295;DHT22;16305;48.566;8.846;2023-04-01T05:34:14;6.50;99.90
29295;DHT22;16305;48.566;8.846;2023-04-01T05:36:40;6.50;99.90
29295;DHT22;16305;48.566;8.846;2023-04-01T05:39:07;6.50;99.90
29295;DHT22;16305;48.566;8.846;2023-04-01T05:41:35;6.50;99.90
29295;DHT22;16305;48.566;8.846;2023-04-01T05:44:01;6.50;99.90
29295;DHT22;16305;48.566;8.846;2023-04-01T05:46:26;6.50;99.90
29295;DHT22;16305;48.566;8.846;2023-04-01T05:48:52;6.50;99.90
29295;DHT22;16305;48.566;8.846;2023-04-01T05:51:17;6.50;99.90
29295;DHT22;16305;48.566;8.846;2023-04-01T05:53:43;6.50;99.90
29295;DHT22;16305;48.566;8.846;2023-04-01T05:56:09;6.50;99.90
29295;DHT22;16305;48.566;8.846;2023-04-01T05:58:35;6.60;99.90
29295;DHT22;16305;48.566;8.846;2023-04-01T06:01:06;6.60;99.90
29295;DHT22;16305;48.566;8.846;2023-04-01T06:03:32;6.60;99.90
29295;DHT22;16305;48.566;8.846;2023-04-01T06:05:57;6.60;99.90
29295;DHT22;16305;48.566;8.846;2023-04-01T06:08:24;6.60;99.90
29295;DHT22;16305;48.566;8.846;2023-04-01T06:11:01;6.60;99.90
29295;DHT22;16305;48.566;8.846;2023-04-01T06:13:46;6.60;99.90
29295;DHT22;16305;48.566;8.846;2023-04-01T06:16:38;6.60;99.90
29295;DHT22;16305;48.566;8.846;2023-04-01T06:19:31;6.70;99.90
29295;DHT22;16305;48.566;8.846;2023-04-01T06:30:43;6.70;99.90
29295;DHT22;16305;48.566;8.846;2023-04-01T06:33:26;6.80;99.90
29295;DHT22;16305;48.566;8.846;2023-04-01T06:38:39;6.80;99.90
29295;DHT22;16305;48.566;8.846;2023-04-01T06:44:13;6.90;99.90
29295;DHT22;16305;48.566;8.846;2023-04-01T06:49:38;6.90;99.90
29295;DHT22;16305;48.566;8.846;2023-04-01T06:57:59;7.00;99.90
29295;DHT22;16305;48.566;8.846;2023-04-01T07:00:30;7.00;99.90
29295;DHT22;16305;48.566;8.846;2023-04-01T07:03:23;7.00;99.90
29295;DHT22;16305;48.566;8.846;2023-04-01T07:05:52;7.10;99.90
29295;DHT22;16305;48.566;8.846;2023-04-01T07:08:24;7.10;99.90
29295;DHT22;16305;48.566;8.846;2023-04-01T07:10:56;7.10;99.90
29295;DHT22;16305;48.566;8.846;2023-04-01T07:13:48;7.10;99.90
29295;DHT22;16305;48.566;8.846;2023-04-01T07:18:58;7.10;99.90
29295;DHT22;16305;48.566;8.846;2023-04-01T07:21:26;7.20;99.90
29295;DHT22;16305;48.566;8.846;2023-04-01T07:23:58;7.20;99.90
29295;DHT22;16305;48.566;8.846;2023-04-01T07:26:25;7.20;99.90
29295;DHT22;16305;48.566;8.846;2023-04-01T07:28:52;7.20;99.90
29295;DHT22;16305;48.566;8.846;2023-04-01T07:34:17;7.30;99.90
29295;DHT22;16305;48.566;8.846;2023-04-01T07:36:50;7.30;99.90
29295;DHT22;16305;48.566;8.846;2023-04-01T07:39:26;7.30;99.90
29295;DHT22;16305;48.566;8.846;2023-04-01T07:44:45;7.30;99.90
29295;DHT22;16305;48.566;8.846;2023-04-01T07:52:46;7.40;99.90
29295;DHT22;16305;48.566;8.846;2023-04-01T08:03:38;7.30;99.90
29295;DHT22;16305;48.566;8.846;2023-04-01T08:06:26;7.30;99.90
29295;DHT22;16305;48.566;8.846;2023-04-01T08:09:06;7.20;99.90
29295;DHT22;16305;48.566;8.846;2023-04-01T08:14:41;7.20;99.90
29295;DHT22;16305;48.566;8.846;2023-04-01T08:17:26;7.20;99.90
29295;DHT22;16305;48.566;8.846;2023-04-01T08:20:08;7.20;99.90
29295;DHT22;16305;48.566;8.846;2023-04-01T08:25:39;7.20;99.90
29295;DHT22;16305;48.566;8.846;2023-04-01T08:28:37;7.10;99.90
29295;DHT22;16305;48.566;8.846;2023-04-01T08:31:12;7.10;99.90
29295;DHT22;16305;48.566;8.846;2023-04-01T08:33:39;7.10;99.90
29295;DHT22;16305;48.566;8.846;2023-04-01T08:36:23;7.20;99.90
29295;DHT22;16305;48.566;8.846;2023-04-01T08:39:02;7.20;99.90
29295;DHT22;16305;48.566;8.846;2023-04-01T08:41:50;7.20;99.90
29295;DHT22;16305;48.566;8.846;2023-04-01T08:48:04;7.10;99.90
29295;DHT22;16305;48.566;8.846;2023-04-01T08:56:37;7.10;99.90
29295;DHT22;16305;48.566;8.846;2023-04-01T08:59:27;7.20;99.90
29295;DHT22;16305;48.566;8.846;2023-04-01T09:11:22;7.40;99.90
29295;DHT22;16305;48.566;8.846;2023-04-01T09:17:01;7.50;99.90
29295;DHT22;16305;48.566;8.846;2023-04-01T09:20:01;7.40;99.90
29295;DHT22;16305;48.566;8.846;2023-04-01T09:28:28;7.40;99.90
29295;DHT22;16305;48.566;8.846;2023-04-01T09:42:43;7.90;99.90
29295;DHT22;16305;48.566;8.846;2023-04-01T09:59:24;7.60;99.90
29295;DHT22;16305;48.566;8.846;2023-04-01T10:02:21;7.60;99.90
29295;DHT22;16305;48.566;8.846;2023-04-01T10:14:32;7.60;99.90
29295;DHT22;16305;48.566;8.846;2023-04-01T10:38:05;7.90;99.90
29295;DHT22;16305;48.566;8.846;2023-04-01T10:43:47;8.00;99.90
29295;DHT22;16305;48.566;8.846;2023-04-01T10:49:19;8.00;99.90
29295;DHT22;16305;48.566;8.846;2023-04-01T10:57:55;8.20;99.90
29295;DHT22;16305;48.566;8.846;2023-04-01T11:09:07;8.10;99.90
29295;DHT22;16305;48.566;8.846;2023-04-01T11:14:28;8.30;99.90
29295;DHT22;16305;48.566;8.846;2023-04-01T11:22:33;8.20;99.90
29295;DHT22;16305;48.566;8.846;2023-04-01T11:25:18;8.20;99.90
29295;DHT22;16305;48.566;8.846;2023-04-01T11:33:38;8.30;99.90
29295;DHT22;16305;48.566;8.846;2023-04-01T11:41:46;8.60;99.90
29295;DHT22;16305;48.566;8.846;2023-04-01T11:44:19;8.60;99.90
29295;DHT22;16305;48.566;8.846;2023-04-01T11:52:46;8.20;99.90
29295;DHT22;16305;48.566;8.846;2023-04-01T12:06:22;8.60;99.90
29295;DHT22;16305;48.566;8.846;2023-04-01T12:13:51;8.80;99.90
29295;DHT22;16305;48.566;8.846;2023-04-01T12:18:59;8.80;99.90
29295;DHT22;16305;48.566;8.846;2023-04-01T12:21:37;8.90;99.90
29295;DHT22;16305;48.566;8.846;2023-04-01T12:27:23;8.80;99.90
29295;DHT22;16305;48.566;8.846;2023-04-01T12:36:07;9.00;99.90
29295;DHT22;16305;48.566;8.846;2023-04-01T12:41:38;8.50;99.90
29295;DHT22;16305;48.566;8.846;2023-04-01T12:47:09;8.60;99.90
29295;DHT22;16305;48.566;8.846;2023-04-01T12:55:39;8.80;99.90
29295;DHT22;16305;48.566;8.846;2023-04-01T13:04:21;9.10;99.90
29295;DHT22;16305;48.566;8.846;2023-04-01T13:07:13;9.10;99.90
29295;DHT22;16305;48.566;8.846;2023-04-01T13:18:29;9.20;99.90
29295;DHT22;16305;48.566;8.846;2023-04-01T13:21:23;9.40;99.90
29295;DHT22;16305;48.566;8.846;2023-04-01T13:29:23;9.10;99.90
29295;DHT22;16305;48.566;8.846;2023-04-01T13:32:06;9.10;99.90
29295;DHT22;16305;48.566;8.846;2023-04-01T13:43:23;9.10;99.90
29295;DHT22;16305;48.566;8.846;2023-04-01T13:46:15;9.20;99.90
29295;DHT22;16305;48.566;8.846;2023-04-01T14:00:27;9.00;99.90
29295;DHT22;16305;48.566;8.846;2023-04-01T14:03:07;8.90;99.90
29295;DHT22;16305;48.566;8.846;2023-04-01T14:05:56;9.10;99.90
29295;DHT22;16305;48.566;8.846;2023-04-01T14:11:32;9.10;99.90
29295;DHT22;16305;48.566;8.846;2023-04-01T14:25:48;9.10;99.90
29295;DHT22;16305;48.566;8.846;2023-04-01T14:28:29;8.90;99.90
29295;DHT22;16305;48.566;8.846;2023-04-01T14:40:11;8.90;99.90
29295;DHT22;16305;48.566;8.846;2023-04-01T14:43:14;9.00;99.90
29295;DHT22;16305;48.566;8.846;2023-04-01T14:46:14;9.10;99.90
29295;DHT22;16305;48.566;8.846;2023-04-01T14:48:57;9.00;99.90
29295;DHT22;16305;48.566;8.846;2023-04-01T14:51:31;8.90;99.90
29295;DHT22;16305;48.566;8.846;2023-04-01T14:56:41;9.10;99.90
29295;DHT22;16305;48.566;8.846;2023-04-01T15:05:25;9.20;99.90
29295;DHT22;16305;48.566;8.846;2023-04-01T15:08:00;9.20;99.90
29295;DHT22;16305;48.566;8.846;2023-04-01T15:16:10;9.10;99.90
29295;DHT22;16305;48.566;8.846;2023-04-01T15:22:12;9.10;99.90
29295;DHT22;16305;48.566;8.846;2023-04-01T15:24:43;9.20;99.90
29295;DHT22;16305;48.566;8.846;2023-04-01T15:27:38;9.20;99.90
29295;DHT22;16305;48.566;8.846;2023-04-01T15:47:53;9.20;99.90
29295;DHT22;16305;48.566;8.846;2023-04-01T15:50:36;9.20;99.90
29295;DHT22;16305;48.566;8.846;2023-04-01T15:55:57;9.20;99.90
29295;DHT22;16305;48.566;8.846;2023-04-01T16:07:30;9.20;99.90
29295;DHT22;16305;48.566;8.846;2023-04-01T16:09:52;9.20;99.90
29295;DHT22;16305;48.566;8.846;2023-04-01T16:12:49;9.20;99.90
29295;DHT22;16305;48.566;8.846;2023-04-01T16:15:27;9.20;99.90
29295;DHT22;16305;48.566;8.846;2023-04-01T16:26:19;9.20;99.90
29295;DHT22;16305;48.566;8.846;2023-04-01T16:59:36;9.00;99.90
29295;DHT22;16305;48.566;8.846;2023-04-01T17:07:34;8.80;99.90
29295;DHT22;16305;48.566;8.846;2023-04-01T17:13:21;8.70;99.90
29295;DHT22;16305;48.566;8.846;2023-04-01T17:23:35;8.60;99.90
29295;DHT22;16305;48.566;8.846;2023-04-01T17:35:04;8.50;99.90
29295;DHT22;16305;48.566;8.846;2023-04-01T17:40:37;8.40;99.90
29295;DHT22;16305;48.566;8.846;2023-04-01T17:43:16;8.50;99.90
29295;DHT22;16305;48.566;8.846;2023-04-01T17:46:01;8.50;99.90
29295;DHT22;16305;48.566;8.846;2023-04-01T17:51:19;8.50;99.90
29295;DHT22;16305;48.566;8.846;2023-04-01T17:59:36;8.50;99.90
29295;DHT22;16305;48.566;8.846;2023-04-01T18:02:38;8.50;99.90
29295;DHT22;16305;48.566;8.846;2023-04-01T18:08:12;8.40;99.90
29295;DHT22;16305;48.566;8.846;2023-04-01T18:10:56;8.30;99.90
29295;DHT22;16305;48.566;8.846;2023-04-01T18:18:58;7.90;99.90
29295;DHT22;16305;48.566;8.846;2023-04-01T18:21:47;7.80;99.90
29295;DHT22;16305;48.566;8.846;2023-04-01T18:26:46;7.60;99.90
29295;DHT22;16305;48.566;8.846;2023-04-01T18:29:27;7.50;99.90
29295;DHT22;16305;48.566;8.846;2023-04-01T18:32:11;7.40;99.90
29295;DHT22;16305;48.566;8.846;2023-04-01T18:35:02;7.40;99.90
29295;DHT22;16305;48.566;8.846;2023-04-01T18:37:44;7.30;99.90
29295;DHT22;16305;48.566;8.846;2023-04-01T18:43:17;7.20;99.90
29295;DHT22;16305;48.566;8.846;2023-04-01T18:45:58;7.20;99.90
29295;DHT22;16305;48.566;8.846;2023-04-01T18:48:42;7.10;99.90
29295;DHT22;16305;48.566;8.846;2023-04-01T18:54:08;7.00;99.90
29295;DHT22;16305;48.566;8.846;2023-04-01T18:56:40;6.90;99.90
29295;DHT22;16305;48.566;8.846;2023-04-01T18:59:25;6.80;99.90
29295;DHT22;16305;48.566;8.846;2023-04-01T19:02:15;6.80;99.90
29295;DHT22;16305;48.566;8.846;2023-04-01T19:04:50;6.70;99.90
29295;DHT22;16305;48.566;8.846;2023-04-01T19:07:33;6.70;99.90
29295;DHT22;16305;48.566;8.846;2023-04-01T19:21:39;6.30;99.90
29295;DHT22;16305;48.566;8.846;2023-04-01T19:27:28;6.20;99.90
29295;DHT22;16305;48.566;8.846;2023-04-01T19:32:49;6.10;99.90
29295;DHT22;16305;48.566;8.846;2023-04-01T19:40:43;6.10;99.90
29295;DHT22;16305;48.566;8.846;2023-04-01T19:46:26;6.00;99.90
29295;DHT22;16305;48.566;8.846;2023-04-01T19:54:51;5.90;99.90
29295;DHT22;16305;48.566;8.846;2023-04-01T19:57:43;5.80;99.90
29295;DHT22;16305;48.566;8.846;2023-04-01T20:00:51;5.80;99.90
29295;DHT22;16305;48.566;8.846;2023-04-01T20:03:35;5.90;99.90
29295;DHT22;16305;48.566;8.846;2023-04-01T20:06:17;5.80;99.90
29295;DHT22;16305;48.566;8.846;2023-04-01T20:09:22;5.90;99.90
29295;DHT22;16305;48.566;8.846;2023-04-01T20:14:53;5.90;99.90
29295;DHT22;16305;48.566;8.846;2023-04-01T20:17:22;5.90;99.90
29295;DHT22;16305;48.566;8.846;2023-04-01T20:20:03;6.00;99.90
29295;DHT22;16305;48.566;8.846;2023-04-01T20:27:58;6.10;99.90
29295;DHT22;16305;48.566;8.846;2023-04-01T20:35:45;6.20;99.90
29295;DHT22;16305;48.566;8.846;2023-04-01T20:46:22;6.30;99.90
29295;DHT22;16305;48.566;8.846;2023-04-01T20:57:42;6.50;99.90
29295;DHT22;16305;48.566;8.846;2023-04-01T21:00:37;6.70;99.90
29295;DHT22;16305;48.566;8.846;2023-04-01T21:06:10;6.70;99.90
29295;DHT22;16305;48.566;8.846;2023-04-01T21:09:00;6.70;99.90
29295;DHT22;16305;48.566;8.846;2023-04-01T21:11:46;6.70;99.90
29295;DHT22;16305;48.566;8.846;2023-04-01T21:17:10;6.80;99.90
29295;DHT22;16305;48.566;8.846;2023-04-01T21:40:54;6.60;99.90
29295;DHT22;16305;48.566;8.846;2023-04-01T21:49:24;6.60;99.90
29295;DHT22;16305;48.566;8.846;2023-04-01T22:07:00;6.30;99.90
29295;DHT22;16305;48.566;8.846;2023-04-01T22:12:09;6.20;99.90
29295;DHT22;16305;48.566;8.846;2023-04-01T22:15:20;6.10;99.90
29295;DHT22;16305;48.566;8.846;2023-04-01T22:17:58;6.10;99.90
29295;DHT22;16305;48.566;8.846;2023-04-01T22:20:35;6.00;99.90
29295;DHT22;16305;48.566;8.846;2023-04-01T22:25:45;5.90;99.90
29295;DHT22;16305;48.566;8.846;2023-04-01T22:28:19;5.90;99.90
29295;DHT22;16305;48.566;8.846;2023-04-01T22:31:06;5.90;99.90
29295;DHT22;16305;48.566;8.846;2023-04-01T22:42:14;5.70;99.90
29295;DHT22;16305;48.566;8.846;2023-04-01T22:53:49;5.70;99.90
29295;DHT22;16305;48.566;8.846;2023-04-01T22:56:33;5.60;99.90
29295;DHT22;16305;48.566;8.846;2023-04-01T23:01:57;5.50;99.90
29295;DHT22;16305;48.566;8.846;2023-04-01T23:04:31;5.50;99.90
29295;DHT22;16305;48.566;8.846;2023-04-01T23:07:03;5.50;99.90
29295;DHT22;16305;48.566;8.846;2023-04-01T23:09:33;5.50;99.90
29295;DHT22;16305;48.566;8.846;2023-04-01T23:12:05;5.50;99.90
29295;DHT22;16305;48.566;8.846;2023-04-01T23:17:22;5.40;99.90
29295;DHT22;16305;48.566;8.846;2023-04-01T23:33:23;5.40;99.90
29295;DHT22;16305;48.566;8.846;2023-04-01T23:38:32;5.30;99.90
29295;DHT22;16305;48.566;8.846;2023-04-01T23:40:58;5.30;99.90
29295;DHT22;16305;48.566;8.846;2023-04-01T23:43:29;5.30;99.90
29295;DHT22;16305;48.566;8.846;2023-04-01T23:45:57;5.40;99.90
29295;DHT22;16305;48.566;8.846;2023-04-01T23:48:32;5.40;99.90
29295;DHT22;16305;48.566;8.846;2023-04-01T23:50:58;5.40;99.90
29295;DHT22;16305;48.566;8.846;2023-04-01T23:53:28;5.40;99.90
29295;DHT22;16305;48.566;8.846;2023-04-01T23:55:54;5.20;99.90
29295;DHT22;16305;48.566;8.846;2023-04-01T23:58:23;4.90;99.90
